sensor_id;sensor_type;location;lat;lon;timestamp;P1;durP1;ratioP1;P2;durP2;ratioP2
55672;SDS011;41554;45.366;20.400;2023-12-20T00:01:50;17.52;;;12.63;;
55672;SDS011;41554;45.366;20.400;2023-12-20T00:04:16;23.42;;;16.30;;
55672;SDS011;41554;45.366;20.400;2023-12-20T00:06:42;20.50;;;15.82;;
55672;SDS011;41554;45.366;20.400;2023-12-20T00:09:09;14.90;;;12.25;;
55672;SDS011;41554;45.366;20.400;2023-12-20T00:11:35;23.88;;;13.60;;
55672;SDS011;41554;45.366;20.400;2023-12-20T00:14:01;19.27;;;13.68;;
55672;SDS011;41554;45.366;20.400;2023-12-20T00:16:27;15.18;;;11.80;;
55672;SDS011;41554;45.366;20.400;2023-12-20T00:18:53;17.90;;;13.80;;
55672;SDS011;41554;45.366;20.400;2023-12-20T00:21:19;27.02;;;15.13;;
55672;SDS011;41554;45.366;20.400;2023-12-20T00:23:45;22.67;;;14.52;;
55672;SDS011;41554;45.366;20.400;2023-12-20T00:26:11;24.63;;;12.73;;
55672;SDS011;41554;45.366;20.400;2023-12-20T00:28:37;20.55;;;14.18;;
55672;SDS011;41554;45.366;20.400;2023-12-20T00:31:03;18.52;;;13.18;;
55672;SDS011;41554;45.366;20.400;2023-12-20T00:33:29;17.67;;;13.52;;
55672;SDS011;41554;45.366;20.400;2023-12-20T00:35:56;20.70;;;13.38;;
55672;SDS011;41554;45.366;20.400;2023-12-20T00:38:22;23.10;;;12.88;;
55672;SDS011;41554;45.366;20.400;2023-12-20T00:40:48;22.20;;;13.93;;
55672;SDS011;41554;45.366;20.400;2023-12-20T00:43:14;21.50;;;16.33;;
55672;SDS011;41554;45.366;20.400;2023-12-20T00:45:41;18.38;;;13.57;;
55672;SDS011;41554;45.366;20.400;2023-12-20T00:48:07;21.80;;;15.85;;
55672;SDS011;41554;45.366;20.400;2023-12-20T00:50:33;19.85;;;14.32;;
55672;SDS011;41554;45.366;20.400;2023-12-20T00:52:59;21.60;;;16.13;;
55672;SDS011;41554;45.366;20.400;2023-12-20T00:55:25;15.85;;;13.30;;
55672;SDS011;41554;45.366;20.400;2023-12-20T00:57:51;18.25;;;13.32;;
55672;SDS011;41554;45.366;20.400;2023-12-20T01:00:18;21.75;;;13.60;;
55672;SDS011;41554;45.366;20.400;2023-12-20T01:02:44;18.80;;;13.38;;
55672;SDS011;41554;45.366;20.400;2023-12-20T01:05:14;15.38;;;12.48;;
55672;SDS011;41554;45.366;20.400;2023-12-20T01:07:40;17.27;;;12.43;;
55672;SDS011;41554;45.366;20.400;2023-12-20T01:10:06;16.98;;;11.80;;
55672;SDS011;41554;45.366;20.400;2023-12-20T01:12:32;20.30;;;13.60;;
55672;SDS011;41554;45.366;20.400;2023-12-20T01:14:58;16.25;;;12.43;;
55672;SDS011;41554;45.366;20.400;2023-12-20T01:17:25;20.77;;;13.20;;
55672;SDS011;41554;45.366;20.400;2023-12-20T01:19:51;18.50;;;12.15;;
55672;SDS011;41554;45.366;20.400;2023-12-20T01:22:17;20.70;;;13.13;;
55672;SDS011;41554;45.366;20.400;2023-12-20T01:24:43;18.40;;;13.60;;
55672;SDS011;41554;45.366;20.400;2023-12-20T01:27:09;19.50;;;12.25;;
55672;SDS011;41554;45.366;20.400;2023-12-20T01:29:35;18.90;;;13.82;;
55672;SDS011;41554;45.366;20.400;2023-12-20T01:32:01;22.52;;;14.13;;
55672;SDS011;41554;45.366;20.400;2023-12-20T01:34:27;19.50;;;13.82;;
55672;SDS011;41554;45.366;20.400;2023-12-20T01:36:53;16.65;;;11.05;;
55672;SDS011;41554;45.366;20.400;2023-12-20T01:39:20;20.20;;;12.85;;
55672;SDS011;41554;45.366;20.400;2023-12-20T01:41:46;17.95;;;14.15;;
55672;SDS011;41554;45.366;20.400;2023-12-20T01:44:12;16.40;;;12.10;;
55672;SDS011;41554;45.366;20.400;2023-12-20T01:46:38;19.85;;;12.65;;
55672;SDS011;41554;45.366;20.400;2023-12-20T01:49:04;16.48;;;10.43;;
55672;SDS011;41554;45.366;20.400;2023-12-20T01:51:31;14.90;;;10.73;;
55672;SDS011;41554;45.366;20.400;2023-12-20T01:53:57;12.43;;;9.73;;
55672;SDS011;41554;45.366;20.400;2023-12-20T01:56:25;15.18;;;10.20;;
55672;SDS011;41554;45.366;20.400;2023-12-20T01:58:52;11.20;;;9.02;;
55672;SDS011;41554;45.366;20.400;2023-12-20T02:01:18;11.02;;;8.98;;
55672;SDS011;41554;45.366;20.400;2023-12-20T02:03:45;14.18;;;10.15;;
55672;SDS011;41554;45.366;20.400;2023-12-20T02:06:11;18.20;;;10.75;;
55672;SDS011;41554;45.366;20.400;2023-12-20T02:08:37;14.60;;;10.15;;
55672;SDS011;41554;45.366;20.400;2023-12-20T02:11:03;15.05;;;10.27;;
55672;SDS011;41554;45.366;20.400;2023-12-20T02:13:30;16.27;;;8.75;;
55672;SDS011;41554;45.366;20.400;2023-12-20T02:15:56;13.65;;;7.47;;
55672;SDS011;41554;45.366;20.400;2023-12-20T02:18:23;11.32;;;8.60;;
55672;SDS011;41554;45.366;20.400;2023-12-20T02:20:49;17.17;;;9.70;;
55672;SDS011;41554;45.366;20.400;2023-12-20T02:23:15;13.45;;;7.82;;
55672;SDS011;41554;45.366;20.400;2023-12-20T02:25:41;14.80;;;8.50;;
55672;SDS011;41554;45.366;20.400;2023-12-20T02:28:07;11.90;;;8.98;;
55672;SDS011;41554;45.366;20.400;2023-12-20T02:30:33;13.70;;;8.80;;
55672;SDS011;41554;45.366;20.400;2023-12-20T02:32:59;10.95;;;8.02;;
55672;SDS011;41554;45.366;20.400;2023-12-20T02:35:26;12.80;;;9.75;;
55672;SDS011;41554;45.366;20.400;2023-12-20T02:37:52;15.48;;;9.02;;
55672;SDS011;41554;45.366;20.400;2023-12-20T02:40:18;8.82;;;6.85;;
55672;SDS011;41554;45.366;20.400;2023-12-20T02:42:44;10.10;;;7.45;;
55672;SDS011;41554;45.366;20.400;2023-12-20T02:45:11;12.13;;;9.10;;
55672;SDS011;41554;45.366;20.400;2023-12-20T02:47:37;12.70;;;8.82;;
55672;SDS011;41554;45.366;20.400;2023-12-20T02:50:03;12.23;;;7.68;;
55672;SDS011;41554;45.366;20.400;2023-12-20T02:52:29;12.10;;;7.40;;
55672;SDS011;41554;45.366;20.400;2023-12-20T02:54:55;9.60;;;7.22;;
55672;SDS011;41554;45.366;20.400;2023-12-20T02:57:21;12.68;;;8.77;;
55672;SDS011;41554;45.366;20.400;2023-12-20T02:59:47;14.25;;;8.50;;
55672;SDS011;41554;45.366;20.400;2023-12-20T03:02:13;13.57;;;7.68;;
55672;SDS011;41554;45.366;20.400;2023-12-20T03:04:40;11.30;;;7.40;;
55672;SDS011;41554;45.366;20.400;2023-12-20T03:07:06;9.75;;;8.23;;
55672;SDS011;41554;45.366;20.400;2023-12-20T03:09:32;11.05;;;9.20;;
55672;SDS011;41554;45.366;20.400;2023-12-20T03:11:58;9.40;;;8.15;;
55672;SDS011;41554;45.366;20.400;2023-12-20T03:14:24;13.80;;;9.82;;
55672;SDS011;41554;45.366;20.400;2023-12-20T03:16:50;15.55;;;8.70;;
55672;SDS011;41554;45.366;20.400;2023-12-20T03:19:17;13.25;;;7.10;;
55672;SDS011;41554;45.366;20.400;2023-12-20T03:21:44;17.58;;;9.00;;
55672;SDS011;41554;45.366;20.400;2023-12-20T03:24:10;11.23;;;8.27;;
55672;SDS011;41554;45.366;20.400;2023-12-20T03:26:36;13.80;;;8.38;;
55672;SDS011;41554;45.366;20.400;2023-12-20T03:29:02;14.18;;;8.85;;
55672;SDS011;41554;45.366;20.400;2023-12-20T03:31:28;10.00;;;7.47;;
55672;SDS011;41554;45.366;20.400;2023-12-20T03:33:54;12.82;;;8.27;;
55672;SDS011;41554;45.366;20.400;2023-12-20T03:36:20;13.13;;;8.50;;
55672;SDS011;41554;45.366;20.400;2023-12-20T03:38:46;14.15;;;8.05;;
55672;SDS011;41554;45.366;20.400;2023-12-20T03:41:13;13.70;;;7.20;;
55672;SDS011;41554;45.366;20.400;2023-12-20T03:43:39;13.27;;;8.00;;
55672;SDS011;41554;45.366;20.400;2023-12-20T03:46:07;12.98;;;8.50;;
55672;SDS011;41554;45.366;20.400;2023-12-20T03:48:34;10.63;;;7.75;;
55672;SDS011;41554;45.366;20.400;2023-12-20T03:51:00;8.13;;;6.72;;
55672;SDS011;41554;45.366;20.400;2023-12-20T03:53:27;10.82;;;7.32;;
55672;SDS011;41554;45.366;20.400;2023-12-20T03:55:53;11.32;;;8.40;;
55672;SDS011;41554;45.366;20.400;2023-12-20T03:58:19;10.43;;;7.70;;
55672;SDS011;41554;45.366;20.400;2023-12-20T04:00:45;7.90;;;6.30;;
55672;SDS011;41554;45.366;20.400;2023-12-20T04:03:11;9.10;;;7.10;;
55672;SDS011;41554;45.366;20.400;2023-12-20T04:05:40;10.90;;;7.60;;
55672;SDS011;41554;45.366;20.400;2023-12-20T04:08:07;9.93;;;6.95;;
55672;SDS011;41554;45.366;20.400;2023-12-20T04:10:33;9.70;;;8.30;;
55672;SDS011;41554;45.366;20.400;2023-12-20T04:12:59;10.20;;;7.07;;
55672;SDS011;41554;45.366;20.400;2023-12-20T04:15:25;9.93;;;7.60;;
55672;SDS011;41554;45.366;20.400;2023-12-20T04:17:51;16.27;;;7.43;;
55672;SDS011;41554;45.366;20.400;2023-12-20T04:20:17;8.50;;;5.80;;
55672;SDS011;41554;45.366;20.400;2023-12-20T04:22:43;11.45;;;7.13;;
55672;SDS011;41554;45.366;20.400;2023-12-20T04:25:09;10.52;;;7.47;;
55672;SDS011;41554;45.366;20.400;2023-12-20T04:27:36;11.73;;;8.48;;
55672;SDS011;41554;45.366;20.400;2023-12-20T04:30:02;11.77;;;8.32;;
55672;SDS011;41554;45.366;20.400;2023-12-20T04:32:28;14.18;;;7.57;;
55672;SDS011;41554;45.366;20.400;2023-12-20T04:34:54;10.43;;;7.72;;
55672;SDS011;41554;45.366;20.400;2023-12-20T04:37:21;13.00;;;9.30;;
55672;SDS011;41554;45.366;20.400;2023-12-20T04:39:47;13.75;;;8.90;;
55672;SDS011;41554;45.366;20.400;2023-12-20T04:42:13;10.48;;;7.10;;
55672;SDS011;41554;45.366;20.400;2023-12-20T04:44:39;9.55;;;8.10;;
55672;SDS011;41554;45.366;20.400;2023-12-20T04:47:05;10.60;;;8.13;;
55672;SDS011;41554;45.366;20.400;2023-12-20T04:49:31;13.30;;;8.38;;
55672;SDS011;41554;45.366;20.400;2023-12-20T04:51:57;10.32;;;7.80;;
55672;SDS011;41554;45.366;20.400;2023-12-20T04:54:23;12.95;;;8.05;;
55672;SDS011;41554;45.366;20.400;2023-12-20T04:56:49;13.40;;;7.80;;
55672;SDS011;41554;45.366;20.400;2023-12-20T04:59:15;9.95;;;7.35;;
55672;SDS011;41554;45.366;20.400;2023-12-20T05:01:41;9.40;;;7.72;;
55672;SDS011;41554;45.366;20.400;2023-12-20T05:04:07;13.15;;;7.30;;
55672;SDS011;41554;45.366;20.400;2023-12-20T05:06:33;10.88;;;8.50;;
55672;SDS011;41554;45.366;20.400;2023-12-20T05:08:59;13.02;;;8.27;;
55672;SDS011;41554;45.366;20.400;2023-12-20T05:11:25;8.27;;;7.35;;
55672;SDS011;41554;45.366;20.400;2023-12-20T05:13:52;13.05;;;7.53;;
55672;SDS011;41554;45.366;20.400;2023-12-20T05:16:18;13.77;;;9.85;;
55672;SDS011;41554;45.366;20.400;2023-12-20T05:18:44;9.77;;;7.85;;
55672;SDS011;41554;45.366;20.400;2023-12-20T05:21:11;13.48;;;8.68;;
55672;SDS011;41554;45.366;20.400;2023-12-20T05:23:37;13.45;;;7.78;;
55672;SDS011;41554;45.366;20.400;2023-12-20T05:26:03;14.63;;;9.73;;
55672;SDS011;41554;45.366;20.400;2023-12-20T05:28:29;11.55;;;8.05;;
55672;SDS011;41554;45.366;20.400;2023-12-20T05:30:55;12.65;;;9.18;;
55672;SDS011;41554;45.366;20.400;2023-12-20T05:33:21;8.75;;;7.25;;
55672;SDS011;41554;45.366;20.400;2023-12-20T05:35:47;11.88;;;6.78;;
55672;SDS011;41554;45.366;20.400;2023-12-20T05:38:13;12.30;;;8.48;;
55672;SDS011;41554;45.366;20.400;2023-12-20T05:40:40;14.63;;;8.48;;
55672;SDS011;41554;45.366;20.400;2023-12-20T05:43:06;11.93;;;7.07;;
55672;SDS011;41554;45.366;20.400;2023-12-20T05:45:32;15.15;;;9.32;;
55672;SDS011;41554;45.366;20.400;2023-12-20T05:47:59;10.85;;;7.90;;
55672;SDS011;41554;45.366;20.400;2023-12-20T05:50:25;14.73;;;9.80;;
55672;SDS011;41554;45.366;20.400;2023-12-20T05:52:51;15.85;;;8.55;;
55672;SDS011;41554;45.366;20.400;2023-12-20T05:55:17;10.02;;;7.90;;
55672;SDS011;41554;45.366;20.400;2023-12-20T05:57:43;15.35;;;10.27;;
55672;SDS011;41554;45.366;20.400;2023-12-20T06:00:10;12.20;;;9.07;;
55672;SDS011;41554;45.366;20.400;2023-12-20T06:02:36;13.48;;;7.85;;
55672;SDS011;41554;45.366;20.400;2023-12-20T06:05:03;16.38;;;9.10;;
55672;SDS011;41554;45.366;20.400;2023-12-20T06:07:30;11.00;;;7.15;;
55672;SDS011;41554;45.366;20.400;2023-12-20T06:09:56;12.07;;;7.60;;
55672;SDS011;41554;45.366;20.400;2023-12-20T06:12:22;14.13;;;9.20;;
55672;SDS011;41554;45.366;20.400;2023-12-20T06:14:48;13.35;;;8.10;;
55672;SDS011;41554;45.366;20.400;2023-12-20T06:17:14;11.85;;;8.93;;
55672;SDS011;41554;45.366;20.400;2023-12-20T06:19:40;12.65;;;9.15;;
55672;SDS011;41554;45.366;20.400;2023-12-20T06:22:09;14.93;;;10.07;;
55672;SDS011;41554;45.366;20.400;2023-12-20T06:24:35;13.93;;;8.30;;
55672;SDS011;41554;45.366;20.400;2023-12-20T06:27:02;10.73;;;8.02;;
55672;SDS011;41554;45.366;20.400;2023-12-20T06:29:28;12.13;;;8.05;;
55672;SDS011;41554;45.366;20.400;2023-12-20T06:31:54;14.50;;;9.57;;
55672;SDS011;41554;45.366;20.400;2023-12-20T06:34:20;14.82;;;9.63;;
55672;SDS011;41554;45.366;20.400;2023-12-20T06:36:46;16.67;;;8.77;;
55672;SDS011;41554;45.366;20.400;2023-12-20T06:39:12;14.63;;;10.77;;
55672;SDS011;41554;45.366;20.400;2023-12-20T06:41:39;16.15;;;12.70;;
55672;SDS011;41554;45.366;20.400;2023-12-20T06:44:05;26.75;;;19.33;;
55672;SDS011;41554;45.366;20.400;2023-12-20T06:46:31;28.90;;;20.35;;
55672;SDS011;41554;45.366;20.400;2023-12-20T06:48:57;26.63;;;23.35;;
55672;SDS011;41554;45.366;20.400;2023-12-20T06:51:23;32.13;;;25.48;;
55672;SDS011;41554;45.366;20.400;2023-12-20T06:53:51;33.00;;;25.83;;
55672;SDS011;41554;45.366;20.400;2023-12-20T06:56:17;29.80;;;24.50;;
55672;SDS011;41554;45.366;20.400;2023-12-20T06:58:43;42.38;;;27.13;;
55672;SDS011;41554;45.366;20.400;2023-12-20T07:01:13;33.60;;;28.88;;
55672;SDS011;41554;45.366;20.400;2023-12-20T07:03:39;35.67;;;27.80;;
55672;SDS011;41554;45.366;20.400;2023-12-20T07:06:06;35.90;;;24.40;;
55672;SDS011;41554;45.366;20.400;2023-12-20T07:08:32;32.13;;;24.92;;
55672;SDS011;41554;45.366;20.400;2023-12-20T07:10:58;27.23;;;18.20;;
55672;SDS011;41554;45.366;20.400;2023-12-20T07:13:24;25.27;;;19.75;;
55672;SDS011;41554;45.366;20.400;2023-12-20T07:15:50;24.35;;;19.73;;
55672;SDS011;41554;45.366;20.400;2023-12-20T07:18:16;29.23;;;21.27;;
55672;SDS011;41554;45.366;20.400;2023-12-20T07:20:43;25.33;;;22.08;;
55672;SDS011;41554;45.366;20.400;2023-12-20T07:23:09;23.48;;;15.95;;
55672;SDS011;41554;45.366;20.400;2023-12-20T07:25:35;22.65;;;15.40;;
55672;SDS011;41554;45.366;20.400;2023-12-20T07:28:01;16.83;;;11.52;;
55672;SDS011;41554;45.366;20.400;2023-12-20T07:30:27;27.13;;;14.93;;
55672;SDS011;41554;45.366;20.400;2023-12-20T07:32:53;21.83;;;14.40;;
55672;SDS011;41554;45.366;20.400;2023-12-20T07:35:19;24.40;;;13.27;;
55672;SDS011;41554;45.366;20.400;2023-12-20T07:37:45;19.52;;;15.25;;
55672;SDS011;41554;45.366;20.400;2023-12-20T07:40:11;22.15;;;11.60;;
55672;SDS011;41554;45.366;20.400;2023-12-20T07:42:37;23.70;;;13.20;;
55672;SDS011;41554;45.366;20.400;2023-12-20T07:45:04;16.38;;;12.40;;
55672;SDS011;41554;45.366;20.400;2023-12-20T07:47:30;15.68;;;13.98;;
55672;SDS011;41554;45.366;20.400;2023-12-20T07:49:56;14.70;;;12.18;;
55672;SDS011;41554;45.366;20.400;2023-12-20T07:52:22;17.27;;;13.52;;
55672;SDS011;41554;45.366;20.400;2023-12-20T07:54:49;20.02;;;13.00;;
55672;SDS011;41554;45.366;20.400;2023-12-20T07:57:15;23.35;;;14.80;;
55672;SDS011;41554;45.366;20.400;2023-12-20T07:59:41;15.48;;;13.30;;
55672;SDS011;41554;45.366;20.400;2023-12-20T08:02:07;21.30;;;14.65;;
55672;SDS011;41554;45.366;20.400;2023-12-20T08:04:33;26.77;;;17.02;;
55672;SDS011;41554;45.366;20.400;2023-12-20T08:06:59;25.73;;;15.70;;
55672;SDS011;41554;45.366;20.400;2023-12-20T08:09:25;19.42;;;15.02;;
55672;SDS011;41554;45.366;20.400;2023-12-20T08:11:52;23.67;;;18.02;;
55672;SDS011;41554;45.366;20.400;2023-12-20T08:14:18;24.52;;;16.77;;
55672;SDS011;41554;45.366;20.400;2023-12-20T08:16:44;20.98;;;15.80;;
55672;SDS011;41554;45.366;20.400;2023-12-20T08:19:10;26.48;;;16.55;;
55672;SDS011;41554;45.366;20.400;2023-12-20T08:21:36;31.55;;;19.95;;
55672;SDS011;41554;45.366;20.400;2023-12-20T08:24:02;28.40;;;19.08;;
55672;SDS011;41554;45.366;20.400;2023-12-20T08:26:28;27.67;;;17.42;;
55672;SDS011;41554;45.366;20.400;2023-12-20T08:28:54;22.23;;;16.52;;
55672;SDS011;41554;45.366;20.400;2023-12-20T08:31:20;27.88;;;18.17;;
55672;SDS011;41554;45.366;20.400;2023-12-20T08:33:47;25.40;;;20.48;;
55672;SDS011;41554;45.366;20.400;2023-12-20T08:36:13;29.85;;;19.40;;
55672;SDS011;41554;45.366;20.400;2023-12-20T08:38:40;32.25;;;18.42;;
55672;SDS011;41554;45.366;20.400;2023-12-20T08:41:06;27.40;;;19.85;;
55672;SDS011;41554;45.366;20.400;2023-12-20T08:43:33;30.40;;;19.73;;
55672;SDS011;41554;45.366;20.400;2023-12-20T08:46:00;30.17;;;20.10;;
55672;SDS011;41554;45.366;20.400;2023-12-20T08:48:27;29.20;;;19.35;;
55672;SDS011;41554;45.366;20.400;2023-12-20T08:50:53;30.23;;;20.60;;
55672;SDS011;41554;45.366;20.400;2023-12-20T08:53:19;23.10;;;18.65;;
55672;SDS011;41554;45.366;20.400;2023-12-20T08:55:46;27.42;;;21.42;;
55672;SDS011;41554;45.366;20.400;2023-12-20T08:58:12;21.60;;;17.90;;
55672;SDS011;41554;45.366;20.400;2023-12-20T09:00:38;27.00;;;23.67;;
55672;SDS011;41554;45.366;20.400;2023-12-20T09:03:04;35.10;;;22.73;;
55672;SDS011;41554;45.366;20.400;2023-12-20T09:05:30;43.05;;;23.98;;
55672;SDS011;41554;45.366;20.400;2023-12-20T09:07:56;25.52;;;22.85;;
55672;SDS011;41554;45.366;20.400;2023-12-20T09:10:22;27.83;;;21.35;;
55672;SDS011;41554;45.366;20.400;2023-12-20T09:12:52;33.72;;;20.25;;
55672;SDS011;41554;45.366;20.400;2023-12-20T09:15:25;24.90;;;19.90;;
55672;SDS011;41554;45.366;20.400;2023-12-20T09:17:52;32.10;;;23.85;;
55672;SDS011;41554;45.366;20.400;2023-12-20T09:20:18;29.90;;;19.42;;
55672;SDS011;41554;45.366;20.400;2023-12-20T09:22:44;32.33;;;19.25;;
55672;SDS011;41554;45.366;20.400;2023-12-20T09:25:10;24.88;;;19.27;;
55672;SDS011;41554;45.366;20.400;2023-12-20T09:27:37;24.83;;;18.63;;
55672;SDS011;41554;45.366;20.400;2023-12-20T09:30:04;35.80;;;20.98;;
55672;SDS011;41554;45.366;20.400;2023-12-20T09:32:30;29.33;;;19.35;;
55672;SDS011;41554;45.366;20.400;2023-12-20T09:34:56;30.33;;;20.60;;
55672;SDS011;41554;45.366;20.400;2023-12-20T09:37:24;30.77;;;19.25;;
55672;SDS011;41554;45.366;20.400;2023-12-20T09:39:50;29.95;;;21.35;;
55672;SDS011;41554;45.366;20.400;2023-12-20T09:42:17;25.95;;;20.52;;
55672;SDS011;41554;45.366;20.400;2023-12-20T09:44:45;24.45;;;19.25;;
55672;SDS011;41554;45.366;20.400;2023-12-20T09:47:12;23.30;;;18.70;;
55672;SDS011;41554;45.366;20.400;2023-12-20T09:49:40;32.08;;;19.58;;
55672;SDS011;41554;45.366;20.400;2023-12-20T09:52:07;33.25;;;21.73;;
55672;SDS011;41554;45.366;20.400;2023-12-20T09:54:33;25.60;;;18.65;;
55672;SDS011;41554;45.366;20.400;2023-12-20T09:56:59;32.45;;;23.20;;
55672;SDS011;41554;45.366;20.400;2023-12-20T09:59:25;21.83;;;15.80;;
55672;SDS011;41554;45.366;20.400;2023-12-20T10:01:52;24.63;;;16.90;;
55672;SDS011;41554;45.366;20.400;2023-12-20T10:04:22;27.73;;;16.80;;
55672;SDS011;41554;45.366;20.400;2023-12-20T10:06:48;23.55;;;18.45;;
55672;SDS011;41554;45.366;20.400;2023-12-20T10:09:14;22.98;;;16.65;;
55672;SDS011;41554;45.366;20.400;2023-12-20T10:11:40;21.63;;;15.45;;
55672;SDS011;41554;45.366;20.400;2023-12-20T10:14:06;29.45;;;18.38;;
55672;SDS011;41554;45.366;20.400;2023-12-20T10:16:33;29.10;;;18.55;;
55672;SDS011;41554;45.366;20.400;2023-12-20T10:18:59;26.63;;;17.73;;
55672;SDS011;41554;45.366;20.400;2023-12-20T10:21:26;46.28;;;26.00;;
55672;SDS011;41554;45.366;20.400;2023-12-20T10:23:56;30.83;;;24.40;;
55672;SDS011;41554;45.366;20.400;2023-12-20T10:26:23;31.20;;;22.30;;
55672;SDS011;41554;45.366;20.400;2023-12-20T10:28:56;38.25;;;25.75;;
55672;SDS011;41554;45.366;20.400;2023-12-20T10:31:34;30.90;;;22.80;;
55672;SDS011;41554;45.366;20.400;2023-12-20T10:34:01;35.65;;;25.05;;
55672;SDS011;41554;45.366;20.400;2023-12-20T10:36:31;31.55;;;26.17;;
55672;SDS011;41554;45.366;20.400;2023-12-20T10:38:58;40.65;;;27.15;;
55672;SDS011;41554;45.366;20.400;2023-12-20T10:41:28;38.30;;;22.73;;
55672;SDS011;41554;45.366;20.400;2023-12-20T10:43:55;37.00;;;24.30;;
55672;SDS011;41554;45.366;20.400;2023-12-20T10:46:22;31.63;;;25.45;;
55672;SDS011;41554;45.366;20.400;2023-12-20T10:48:48;35.88;;;22.95;;
55672;SDS011;41554;45.366;20.400;2023-12-20T10:51:15;31.70;;;20.70;;
55672;SDS011;41554;45.366;20.400;2023-12-20T10:53:43;27.75;;;20.58;;
55672;SDS011;41554;45.366;20.400;2023-12-20T10:56:11;29.95;;;21.63;;
55672;SDS011;41554;45.366;20.400;2023-12-20T10:58:38;27.77;;;17.48;;
55672;SDS011;41554;45.366;20.400;2023-12-20T11:01:12;25.98;;;18.88;;
55672;SDS011;41554;45.366;20.400;2023-12-20T11:03:38;26.38;;;19.05;;
55672;SDS011;41554;45.366;20.400;2023-12-20T11:06:10;31.83;;;21.25;;
55672;SDS011;41554;45.366;20.400;2023-12-20T11:11:10;32.22;;;21.80;;
55672;SDS011;41554;45.366;20.400;2023-12-20T11:16:04;22.00;;;19.40;;
55672;SDS011;41554;45.366;20.400;2023-12-20T11:18:30;36.17;;;22.60;;
55672;SDS011;41554;45.366;20.400;2023-12-20T11:21:15;29.33;;;22.48;;
55672;SDS011;41554;45.366;20.400;2023-12-20T11:23:42;26.55;;;22.08;;
55672;SDS011;41554;45.366;20.400;2023-12-20T11:26:08;31.98;;;23.42;;
55672;SDS011;41554;45.366;20.400;2023-12-20T11:28:34;29.50;;;21.73;;
55672;SDS011;41554;45.366;20.400;2023-12-20T11:31:01;28.30;;;20.85;;
55672;SDS011;41554;45.366;20.400;2023-12-20T11:33:32;32.28;;;23.40;;
55672;SDS011;41554;45.366;20.400;2023-12-20T11:36:01;25.65;;;20.23;;
55672;SDS011;41554;45.366;20.400;2023-12-20T11:38:28;36.92;;;22.58;;
55672;SDS011;41554;45.366;20.400;2023-12-20T11:41:02;30.05;;;22.83;;
55672;SDS011;41554;45.366;20.400;2023-12-20T11:46:03;33.22;;;21.90;;
55672;SDS011;41554;45.366;20.400;2023-12-20T11:48:30;30.75;;;22.85;;
55672;SDS011;41554;45.366;20.400;2023-12-20T11:50:57;37.33;;;21.58;;
55672;SDS011;41554;45.366;20.400;2023-12-20T11:53:23;34.65;;;20.90;;
55672;SDS011;41554;45.366;20.400;2023-12-20T11:55:49;33.17;;;22.52;;
55672;SDS011;41554;45.366;20.400;2023-12-20T11:58:15;23.88;;;20.17;;
55672;SDS011;41554;45.366;20.400;2023-12-20T12:00:42;25.70;;;16.77;;
55672;SDS011;41554;45.366;20.400;2023-12-20T12:03:08;23.15;;;16.23;;
55672;SDS011;41554;45.366;20.400;2023-12-20T12:05:34;23.83;;;17.17;;
55672;SDS011;41554;45.366;20.400;2023-12-20T12:08:01;22.45;;;17.80;;
55672;SDS011;41554;45.366;20.400;2023-12-20T12:10:27;20.20;;;15.50;;
55672;SDS011;41554;45.366;20.400;2023-12-20T12:12:53;22.55;;;15.18;;
55672;SDS011;41554;45.366;20.400;2023-12-20T12:15:19;23.80;;;16.08;;
55672;SDS011;41554;45.366;20.400;2023-12-20T12:17:53;25.13;;;17.42;;
55672;SDS011;41554;45.366;20.400;2023-12-20T12:20:20;19.23;;;14.63;;
55672;SDS011;41554;45.366;20.400;2023-12-20T12:22:46;48.53;;;33.03;;
55672;SDS011;41554;45.366;20.400;2023-12-20T12:25:16;40.88;;;24.88;;
55672;SDS011;41554;45.366;20.400;2023-12-20T12:27:42;33.25;;;23.35;;
55672;SDS011;41554;45.366;20.400;2023-12-20T12:30:08;28.88;;;21.50;;
55672;SDS011;41554;45.366;20.400;2023-12-20T12:32:35;28.20;;;19.80;;
55672;SDS011;41554;45.366;20.400;2023-12-20T12:35:02;41.03;;;27.02;;
55672;SDS011;41554;45.366;20.400;2023-12-20T12:37:29;39.45;;;26.48;;
55672;SDS011;41554;45.366;20.400;2023-12-20T12:39:55;35.35;;;23.52;;
55672;SDS011;41554;45.366;20.400;2023-12-20T12:42:22;42.78;;;33.58;;
55672;SDS011;41554;45.366;20.400;2023-12-20T12:44:53;33.03;;;27.00;;
55672;SDS011;41554;45.366;20.400;2023-12-20T12:47:20;33.83;;;25.65;;
55672;SDS011;41554;45.366;20.400;2023-12-20T12:49:46;29.77;;;19.95;;
55672;SDS011;41554;45.366;20.400;2023-12-20T12:52:12;27.73;;;16.95;;
55672;SDS011;41554;45.366;20.400;2023-12-20T12:54:38;21.52;;;16.20;;
55672;SDS011;41554;45.366;20.400;2023-12-20T12:57:04;22.25;;;13.35;;
55672;SDS011;41554;45.366;20.400;2023-12-20T12:59:30;28.15;;;16.80;;
55672;SDS011;41554;45.366;20.400;2023-12-20T13:01:56;25.08;;;16.35;;
55672;SDS011;41554;45.366;20.400;2023-12-20T13:04:23;29.45;;;19.63;;
55672;SDS011;41554;45.366;20.400;2023-12-20T13:06:49;27.95;;;18.00;;
55672;SDS011;41554;45.366;20.400;2023-12-20T13:09:15;31.45;;;20.05;;
55672;SDS011;41554;45.366;20.400;2023-12-20T13:11:41;23.58;;;17.65;;
55672;SDS011;41554;45.366;20.400;2023-12-20T13:14:07;34.33;;;21.05;;
55672;SDS011;41554;45.366;20.400;2023-12-20T13:16:36;26.73;;;20.45;;
55672;SDS011;41554;45.366;20.400;2023-12-20T13:19:02;30.88;;;20.92;;
55672;SDS011;41554;45.366;20.400;2023-12-20T13:21:28;27.88;;;19.05;;
55672;SDS011;41554;45.366;20.400;2023-12-20T13:23:55;21.23;;;17.40;;
55672;SDS011;41554;45.366;20.400;2023-12-20T13:26:22;25.20;;;17.48;;
55672;SDS011;41554;45.366;20.400;2023-12-20T13:28:48;24.05;;;16.85;;
55672;SDS011;41554;45.366;20.400;2023-12-20T13:31:14;26.25;;;16.60;;
55672;SDS011;41554;45.366;20.400;2023-12-20T13:33:40;21.65;;;16.88;;
55672;SDS011;41554;45.366;20.400;2023-12-20T13:36:06;30.80;;;18.00;;
55672;SDS011;41554;45.366;20.400;2023-12-20T13:38:32;26.10;;;18.17;;
55672;SDS011;41554;45.366;20.400;2023-12-20T13:40:58;35.08;;;19.67;;
55672;SDS011;41554;45.366;20.400;2023-12-20T13:43:24;30.05;;;19.17;;
55672;SDS011;41554;45.366;20.400;2023-12-20T13:45:51;25.33;;;16.98;;
55672;SDS011;41554;45.366;20.400;2023-12-20T13:48:18;27.15;;;17.48;;
55672;SDS011;41554;45.366;20.400;2023-12-20T13:50:44;23.05;;;16.35;;
55672;SDS011;41554;45.366;20.400;2023-12-20T13:53:10;32.85;;;19.40;;
55672;SDS011;41554;45.366;20.400;2023-12-20T13:55:36;25.50;;;17.17;;
55672;SDS011;41554;45.366;20.400;2023-12-20T13:58:03;31.70;;;17.23;;
55672;SDS011;41554;45.366;20.400;2023-12-20T14:00:29;28.48;;;18.85;;
55672;SDS011;41554;45.366;20.400;2023-12-20T14:02:55;24.27;;;16.90;;
55672;SDS011;41554;45.366;20.400;2023-12-20T14:05:21;23.67;;;17.50;;
55672;SDS011;41554;45.366;20.400;2023-12-20T14:07:48;25.13;;;16.88;;
55672;SDS011;41554;45.366;20.400;2023-12-20T14:10:15;27.67;;;16.75;;
55672;SDS011;41554;45.366;20.400;2023-12-20T14:12:41;26.38;;;17.80;;
55672;SDS011;41554;45.366;20.400;2023-12-20T14:15:09;27.17;;;18.30;;
55672;SDS011;41554;45.366;20.400;2023-12-20T14:17:39;27.50;;;19.88;;